createdAt,value
2022-09-20T00:01:28.362Z,18.05
2022-09-20T00:04:17.019Z,19.52
2022-09-20T00:07:07.426Z,20.85
2022-09-20T00:09:57.017Z,20.50
2022-09-20T00:12:45.723Z,20.08
2022-09-20T00:15:35.290Z,19.92
2022-09-20T00:18:23.926Z,19.33
2022-09-20T00:21:17.573Z,21.40
2022-09-20T00:24:07.898Z,20.90
2022-09-20T00:26:56.576Z,18.25
2022-09-20T00:29:45.063Z,17.50
2022-09-20T00:32:33.734Z,17.30
2022-09-20T00:35:21.261Z,18.05
2022-09-20T00:38:10.933Z,19.98
2022-09-20T00:41:00.962Z,21.23
2022-09-20T00:43:49.363Z,19.05
2022-09-20T00:46:42.232Z,20.10
2022-09-20T00:49:31.597Z,19.30
2022-09-20T00:52:20.652Z,21.17
2022-09-20T00:55:11.389Z,20.17
2022-09-20T00:58:01.786Z,21.38
2022-09-20T01:00:52.057Z,23.80
2022-09-20T01:03:42.066Z,21.40
2022-09-20T01:06:31.721Z,21.23
2022-09-20T01:09:20.301Z,23.70
2022-09-20T01:12:15.071Z,23.10
2022-09-20T01:15:06.842Z,22.58
2022-09-20T01:17:59.109Z,18.92
2022-09-20T01:20:49.435Z,18.73
2022-09-20T01:23:48.192Z,22.52
2022-09-20T01:26:59.884Z,21.42
2022-09-20T01:30:04.374Z,19.95
2022-09-20T01:33:08.513Z,22.63
2022-09-20T01:35:59.929Z,23.35
2022-09-20T01:38:57.125Z,21.08
2022-09-20T01:41:49.881Z,23.90
2022-09-20T01:44:44.705Z,23.95
2022-09-20T01:47:41.403Z,24.25
2022-09-20T01:50:36.344Z,20.38
2022-09-20T01:53:50.075Z,22.52
2022-09-20T01:57:14.517Z,21.95
2022-09-20T02:00:12.042Z,20.77
2022-09-20T02:03:51.873Z,19.65
2022-09-20T02:07:06.472Z,22.65
2022-09-20T02:10:13.749Z,20.20
2022-09-20T02:13:05.706Z,21.13
2022-09-20T02:16:26.738Z,22.20
2022-09-20T02:19:34.234Z,23.40
2022-09-20T02:22:44.229Z,22.77
2022-09-20T02:25:54.321Z,22.67
2022-09-20T02:28:55.734Z,22.98
2022-09-20T02:32:01.737Z,22.02
2022-09-20T02:35:13.739Z,22.45
2022-09-20T02:38:12.798Z,21.92
2022-09-20T02:41:30.599Z,18.58
2022-09-20T02:44:41.022Z,20.65
2022-09-20T02:47:34.563Z,21.33
2022-09-20T02:50:30.795Z,20.67
2022-09-20T02:53:34.001Z,21.52
2022-09-20T02:56:30.932Z,21.45
2022-09-20T02:59:28.991Z,22.23
2022-09-20T03:02:25.130Z,19.88
2022-09-20T03:05:20.046Z,20.85
2022-09-20T03:08:21.965Z,19.85
2022-09-20T03:11:19.803Z,20.30
2022-09-20T03:14:16.014Z,22.40
2022-09-20T03:17:15.271Z,20.67
2022-09-20T03:20:16.326Z,20.45
2022-09-20T03:23:15.045Z,23.05
2022-09-20T03:26:15.056Z,20.08
2022-09-20T03:29:10.368Z,19.33
2022-09-20T03:32:14.001Z,18.08
2022-09-20T03:35:15.609Z,18.05
2022-09-20T03:38:20.856Z,16.38
2022-09-20T03:41:25.875Z,18.27
2022-09-20T03:44:43.137Z,17.40
2022-09-20T03:47:47.907Z,18.60
2022-09-20T03:51:02.055Z,19.92
2022-09-20T03:54:17.187Z,14.02
2022-09-20T03:57:39.336Z,16.60
2022-09-20T04:00:39.836Z,18.45
2022-09-20T04:03:37.483Z,16.52
2022-09-20T04:06:43.520Z,15.02
2022-09-20T04:10:07.972Z,17.63
2022-09-20T04:13:13.193Z,18.33
2022-09-20T04:16:27.672Z,15.48
2022-09-20T04:19:23.030Z,19.35
2022-09-20T04:22:11.948Z,14.43
2022-09-20T04:25:06.870Z,16.48
2022-09-20T04:27:59.802Z,16.80
2022-09-20T04:30:49.167Z,14.98
2022-09-20T04:33:44.513Z,15.63
2022-09-20T04:36:50.775Z,13.35
2022-09-20T04:39:48.743Z,13.57
2022-09-20T04:43:10.721Z,14.18
2022-09-20T04:46:18.382Z,15.02
2022-09-20T04:49:35.926Z,15.70
2022-09-20T04:52:55.326Z,17.20
2022-09-20T04:55:52.247Z,15.52
2022-09-20T04:58:48.219Z,17.40
2022-09-20T05:02:23.797Z,15.35
2022-09-20T05:05:35.882Z,14.93
2022-09-20T05:09:06.918Z,15.00
2022-09-20T05:12:13.047Z,16.13
2022-09-20T05:15:11.666Z,16.45
2022-09-20T05:18:21.632Z,16.55
2022-09-20T05:21:24.722Z,15.10
2022-09-20T05:24:26.436Z,13.88
2022-09-20T05:27:34.836Z,15.38
2022-09-20T05:30:33.803Z,15.13
2022-09-20T05:33:29.954Z,16.33
2022-09-20T05:36:34.343Z,17.30
2022-09-20T05:39:37.874Z,14.60
2022-09-20T05:42:39.363Z,31.58
2022-09-20T05:45:58.953Z,13.50
2022-09-20T05:48:56.488Z,15.07
2022-09-20T05:52:01.260Z,14.95
2022-09-20T05:55:09.282Z,15.82
2022-09-20T05:58:31.957Z,13.82
2022-09-20T06:01:27.040Z,13.98
2022-09-20T06:04:19.980Z,13.93
2022-09-20T06:07:21.676Z,14.05
2022-09-20T06:10:34.188Z,15.05
2022-09-20T06:13:39.839Z,14.82
2022-09-20T06:16:39.385Z,13.35
2022-09-20T06:19:36.378Z,15.88
2022-09-20T06:22:29.673Z,17.00
2022-09-20T06:25:23.725Z,19.70
2022-09-20T06:28:17.626Z,17.83
2022-09-20T06:31:11.342Z,15.02
2022-09-20T06:34:05.036Z,17.05
2022-09-20T06:37:18.305Z,19.10
2022-09-20T06:40:50.273Z,16.98
2022-09-20T06:43:41.625Z,16.33
2022-09-20T06:46:31.633Z,17.83
2022-09-20T06:49:20.033Z,17.13
2022-09-20T06:52:10.883Z,18.85
2022-09-20T06:54:59.308Z,17.83
2022-09-20T06:57:51.590Z,19.92
2022-09-20T07:00:40.762Z,22.77
2022-09-20T07:03:29.186Z,17.38
2022-09-20T07:06:19.863Z,18.23
2022-09-20T07:09:08.630Z,16.98
2022-09-20T07:11:59.093Z,17.90
2022-09-20T07:14:50.684Z,17.98
2022-09-20T07:17:39.038Z,25.23
2022-09-20T07:20:27.578Z,18.73
2022-09-20T07:23:16.976Z,19.13
2022-09-20T07:26:05.753Z,20.60
2022-09-20T07:28:54.743Z,23.60
2022-09-20T07:31:45.158Z,17.08
2022-09-20T07:34:33.652Z,19.65
2022-09-20T07:37:22.484Z,18.58
2022-09-20T07:40:12.566Z,17.92
2022-09-20T07:43:00.952Z,19.13
2022-09-20T07:45:52.626Z,16.63
2022-09-20T07:48:43.179Z,17.33
2022-09-20T07:51:32.343Z,18.00
2022-09-20T07:54:21.237Z,15.10
2022-09-20T07:57:09.661Z,18.17
2022-09-20T07:59:58.069Z,15.95
2022-09-20T08:02:46.361Z,17.67
2022-09-20T08:05:36.451Z,15.82
2022-09-20T08:08:25.053Z,15.18
2022-09-20T08:11:16.216Z,15.73
2022-09-20T08:14:06.889Z,19.02
2022-09-20T08:17:00.273Z,19.33
2022-09-20T08:19:48.737Z,15.32
2022-09-20T08:22:42.185Z,18.90
2022-09-20T08:25:30.716Z,19.73
2022-09-20T08:28:19.367Z,19.45
2022-09-20T08:31:09.896Z,17.02
2022-09-20T08:33:59.064Z,18.23
2022-09-20T08:36:51.815Z,14.80
2022-09-20T08:39:58.423Z,16.10
2022-09-20T08:42:47.468Z,15.18
2022-09-20T08:45:35.851Z,14.35
2022-09-20T08:48:32.977Z,14.48
2022-09-20T08:51:23.439Z,14.80
2022-09-20T08:54:16.309Z,15.10
2022-09-20T08:57:15.659Z,16.58
2022-09-20T09:00:07.570Z,16.52
2022-09-20T09:02:59.001Z,12.50
2022-09-20T09:05:49.243Z,16.20
2022-09-20T09:08:40.011Z,20.67
2022-09-20T09:11:28.411Z,16.65
2022-09-20T09:14:46.050Z,16.95
2022-09-20T09:17:35.312Z,18.88
2022-09-20T09:20:25.088Z,17.00
2022-09-20T09:23:26.057Z,18.00
2022-09-20T09:26:19.124Z,17.42
2022-09-20T09:29:17.624Z,16.85
2022-09-20T09:32:23.801Z,18.08
2022-09-20T09:35:25.484Z,17.75
2022-09-20T09:38:23.529Z,18.20
2022-09-20T09:41:29.971Z,19.05
2022-09-20T09:44:24.931Z,18.55
2022-09-20T09:47:28.196Z,18.73
2022-09-20T09:50:24.197Z,17.75
2022-09-20T09:53:16.659Z,16.58
2022-09-20T09:56:47.663Z,17.58
2022-09-20T09:59:57.623Z,18.85
2022-09-20T10:03:18.747Z,20.70
2022-09-20T10:06:16.839Z,18.60
2022-09-20T10:09:20.166Z,19.13
2022-09-20T10:12:22.179Z,18.25
2022-09-20T10:15:29.605Z,16.70
2022-09-20T10:18:32.764Z,17.13
2022-09-20T10:24:40.628Z,15.23
2022-09-20T10:27:42.107Z,14.07
2022-09-20T10:30:42.939Z,15.43
2022-09-20T10:33:39.491Z,13.10
2022-09-20T10:36:33.385Z,16.73
2022-09-20T10:39:28.088Z,14.38
2022-09-20T10:42:46.155Z,12.50
2022-09-20T10:49:03.645Z,13.55
2022-09-20T10:52:03.419Z,13.25
2022-09-20T10:55:15.493Z,13.60
2022-09-20T10:58:47.149Z,14.77
2022-09-20T11:01:44.249Z,12.27
2022-09-20T11:04:56.529Z,13.38
2022-09-20T11:07:56.188Z,13.82
2022-09-20T11:10:49.634Z,12.13
2022-09-20T11:13:45.804Z,11.88
2022-09-20T11:16:41.918Z,15.65
2022-09-20T11:19:36.351Z,15.02
2022-09-20T11:22:32.801Z,11.05
2022-09-20T11:25:34.303Z,10.55
2022-09-20T11:28:28.403Z,10.48
2022-09-20T11:31:24.653Z,9.45
2022-09-20T11:34:19.478Z,9.55
2022-09-20T11:37:08.006Z,12.85
2022-09-20T11:40:02.676Z,8.73
2022-09-20T11:42:52.624Z,9.73
2022-09-20T11:45:43.227Z,9.80
2022-09-20T11:48:35.340Z,8.25
2022-09-20T11:51:45.461Z,8.57
2022-09-20T11:55:10.900Z,9.23
2022-09-20T11:58:03.686Z,7.05
2022-09-20T12:00:56.658Z,6.97
2022-09-20T12:04:00.115Z,7.22
2022-09-20T12:07:06.055Z,6.80
2022-09-20T12:10:01.289Z,6.82
2022-09-20T12:12:51.235Z,6.13
2022-09-20T12:15:44.253Z,6.03
2022-09-20T12:18:48.878Z,20.13
2022-09-20T12:22:13.781Z,13.45
2022-09-20T12:25:38.521Z,6.20
2022-09-20T12:28:35.308Z,5.85
2022-09-20T12:31:48.465Z,6.05
2022-09-20T12:34:38.305Z,5.35
2022-09-20T12:37:28.078Z,6.05
2022-09-20T12:40:19.296Z,14.00
2022-09-20T12:43:18.173Z,6.57
2022-09-20T12:46:11.845Z,7.55
2022-09-20T12:50:09.425Z,5.80
2022-09-20T12:53:04.246Z,7.18
2022-09-20T12:55:56.382Z,9.25
2022-09-20T12:58:53.656Z,5.68
2022-09-20T13:01:43.669Z,5.53
2022-09-20T13:05:02.363Z,5.13
2022-09-20T13:07:59.540Z,5.70
2022-09-20T13:10:56.188Z,6.20
2022-09-20T13:13:49.246Z,6.18
2022-09-20T13:16:47.589Z,5.22
2022-09-20T13:19:39.049Z,4.95
2022-09-20T13:22:30.474Z,4.78
2022-09-20T13:25:22.462Z,6.03
2022-09-20T13:28:25.681Z,5.60
2022-09-20T13:31:32.698Z,7.38
2022-09-20T13:34:23.883Z,6.97
2022-09-20T13:37:21.168Z,4.15
2022-09-20T13:40:19.665Z,3.42
2022-09-20T13:43:24.103Z,3.58
2022-09-20T13:46:16.487Z,4.10
2022-09-20T13:49:17.637Z,5.65
2022-09-20T13:52:23.582Z,6.45
2022-09-20T13:55:27.496Z,5.07
2022-09-20T13:58:24.104Z,7.50
2022-09-20T14:01:24.195Z,4.88
2022-09-20T14:04:17.437Z,3.47
2022-09-20T14:07:08.552Z,4.93
2022-09-20T14:09:58.278Z,5.95
2022-09-20T14:12:49.251Z,5.40
2022-09-20T14:15:42.215Z,6.63
2022-09-20T14:18:31.571Z,4.18
2022-09-20T14:21:25.140Z,5.47
2022-09-20T14:24:32.197Z,4.80
2022-09-20T14:27:22.561Z,3.88
2022-09-20T14:30:30.558Z,3.53
2022-09-20T14:33:21.951Z,7.25
2022-09-20T14:36:15.788Z,6.00
2022-09-20T14:39:06.202Z,6.32
2022-09-20T14:41:55.566Z,5.25
2022-09-20T14:44:44.168Z,5.45
2022-09-20T14:47:39.507Z,19.35
2022-09-20T14:50:32.777Z,6.38
2022-09-20T14:53:27.611Z,6.45
2022-09-20T14:56:17.252Z,5.32
2022-09-20T14:59:21.534Z,5.15
2022-09-20T15:02:14.930Z,6.18
2022-09-20T15:05:03.789Z,5.90
2022-09-20T15:07:54.697Z,10.55
2022-09-20T15:10:43.139Z,7.28
2022-09-20T15:13:32.124Z,6.10
2022-09-20T15:16:21.736Z,5.22
2022-09-20T15:19:10.953Z,4.45
2022-09-20T15:22:00.671Z,5.18
2022-09-20T15:24:50.828Z,3.88
2022-09-20T15:27:39.527Z,5.28
2022-09-20T15:30:28.055Z,7.55
2022-09-20T15:33:17.084Z,3.85
2022-09-20T15:36:06.443Z,3.47
2022-09-20T15:38:55.339Z,2.53
2022-09-20T15:41:46.171Z,2.72
2022-09-20T15:44:34.582Z,3.88
2022-09-20T15:47:23.153Z,3.72
2022-09-20T15:50:12.104Z,6.05
2022-09-20T15:53:00.904Z,3.80
2022-09-20T15:55:49.339Z,1.58
2022-09-20T15:58:39.277Z,1.90
2022-09-20T16:01:30.135Z,2.17
2022-09-20T16:04:20.378Z,2.95
2022-09-20T16:07:09.754Z,2.50
2022-09-20T16:09:58.713Z,2.08
2022-09-20T16:12:47.401Z,1.88
2022-09-20T16:15:38.889Z,1.75
2022-09-20T16:18:47.547Z,2.10
2022-09-20T16:21:37.734Z,3.92
2022-09-20T16:24:27.269Z,3.92
2022-09-20T16:27:18.763Z,3.53
2022-09-20T16:30:09.300Z,1.65
2022-09-20T16:33:01.848Z,4.35
2022-09-20T16:35:50.322Z,3.92
2022-09-20T16:38:43.594Z,3.25
2022-09-20T16:41:32.893Z,2.00
2022-09-20T16:44:21.531Z,2.67
2022-09-20T16:47:14.365Z,3.65
2022-09-20T16:50:04.400Z,3.60
2022-09-20T16:52:52.938Z,4.93
2022-09-20T16:55:45.548Z,5.35
2022-09-20T16:58:35.445Z,3.63
2022-09-20T17:01:24.660Z,9.07
2022-09-20T17:04:14.617Z,6.00
2022-09-20T17:07:04.638Z,2.72
2022-09-20T17:10:01.039Z,4.05
2022-09-20T17:12:52.524Z,4.90
2022-09-20T17:15:41.653Z,3.88
2022-09-20T17:18:30.854Z,4.13
2022-09-20T17:21:20.343Z,4.90
2022-09-20T17:24:11.074Z,3.72
2022-09-20T17:27:01.984Z,4.68
2022-09-20T17:29:51.419Z,4.22
2022-09-20T17:32:40.056Z,6.30
2022-09-20T17:35:29.612Z,4.72
2022-09-20T17:38:18.115Z,5.88
2022-09-20T17:41:09.898Z,3.17
2022-09-20T17:43:59.764Z,3.45
2022-09-20T17:46:50.704Z,6.55
2022-09-20T17:49:41.193Z,3.53
2022-09-20T17:52:29.720Z,5.75
2022-09-20T17:55:18.728Z,4.43
2022-09-20T17:58:08.537Z,4.55
2022-09-20T18:01:03.936Z,4.38
2022-09-20T18:03:53.174Z,6.28
2022-09-20T18:06:43.337Z,3.67
2022-09-20T18:09:32.904Z,5.35
2022-09-20T18:12:21.664Z,4.47
2022-09-20T18:15:11.846Z,3.38
2022-09-20T18:18:00.364Z,5.45
2022-09-20T18:20:49.128Z,8.00
2022-09-20T18:23:37.743Z,4.50
2022-09-20T18:26:27.700Z,4.88
2022-09-20T18:29:18.331Z,5.15
2022-09-20T18:32:09.188Z,6.45
2022-09-20T18:34:58.286Z,10.23
2022-09-20T18:37:47.589Z,6.32
2022-09-20T18:40:38.705Z,7.82
2022-09-20T18:43:30.518Z,5.95
2022-09-20T18:46:23.982Z,9.52
2022-09-20T18:49:17.036Z,7.38
2022-09-20T18:52:05.963Z,8.57
2022-09-20T18:54:56.156Z,8.82
2022-09-20T18:57:45.295Z,9.57
2022-09-20T19:00:34.830Z,12.32
2022-09-20T19:03:28.889Z,9.27
2022-09-20T19:06:25.163Z,12.95
2022-09-20T19:09:23.445Z,13.63
2022-09-20T19:12:20.575Z,10.20
2022-09-20T19:15:24.409Z,11.95
2022-09-20T19:18:26.617Z,12.95
2022-09-20T19:21:26.739Z,11.95
2022-09-20T19:24:26.237Z,10.63
2022-09-20T19:27:15.363Z,9.95
2022-09-20T19:30:04.642Z,10.15
2022-09-20T19:32:53.589Z,12.77
2022-09-20T19:35:49.322Z,13.25
2022-09-20T19:38:49.824Z,11.55
2022-09-20T19:41:47.488Z,10.00
2022-09-20T19:44:47.403Z,11.05
2022-09-20T19:47:46.594Z,13.38
2022-09-20T19:50:41.137Z,10.10
2022-09-20T19:53:30.675Z,9.43
2022-09-20T19:56:24.955Z,10.02
2022-09-20T19:59:14.207Z,7.28
2022-09-20T20:02:03.415Z,8.52
2022-09-20T20:04:52.858Z,10.68
2022-09-20T20:07:48.779Z,8.57
2022-09-20T20:10:54.428Z,9.48
2022-09-20T20:14:07.210Z,8.98
2022-09-20T20:17:07.620Z,7.13
2022-09-20T20:20:07.307Z,8.52
2022-09-20T20:23:23.584Z,6.68
2022-09-20T20:26:20.252Z,7.22
2022-09-20T20:29:12.079Z,8.35
2022-09-20T20:32:00.525Z,12.18
2022-09-20T20:34:49.057Z,9.55
2022-09-20T20:37:40.201Z,8.73
2022-09-20T20:40:28.730Z,11.15
2022-09-20T20:43:18.399Z,7.03
2022-09-20T20:46:09.662Z,10.68
2022-09-20T20:48:58.654Z,8.13
2022-09-20T20:51:47.635Z,8.63
2022-09-20T20:54:36.110Z,9.55
2022-09-20T20:57:25.657Z,7.97
2022-09-20T21:00:15.299Z,6.82
2022-09-20T21:03:05.774Z,8.95
2022-09-20T21:05:54.913Z,7.18
2022-09-20T21:08:48.988Z,9.32
2022-09-20T21:11:40.513Z,7.10
2022-09-20T21:14:29.913Z,7.15
2022-09-20T21:17:18.527Z,7.95
2022-09-20T21:20:09.846Z,9.15
2022-09-20T21:22:58.288Z,9.95
2022-09-20T21:25:46.715Z,6.18
2022-09-20T21:28:37.451Z,6.57
2022-09-20T21:31:27.571Z,8.63
2022-09-20T21:34:17.393Z,7.38
2022-09-20T21:37:07.501Z,6.03
2022-09-20T21:39:55.984Z,9.80
2022-09-20T21:42:44.510Z,6.90
2022-09-20T21:45:33.657Z,7.55
2022-09-20T21:48:22.071Z,8.30
2022-09-20T21:51:12.062Z,7.18
2022-09-20T21:54:02.951Z,8.32
2022-09-20T21:56:55.675Z,7.68
2022-09-20T21:59:44.085Z,9.25
2022-09-20T22:02:34.368Z,7.45
2022-09-20T22:05:22.839Z,7.72
2022-09-20T22:08:12.731Z,8.70
2022-09-20T22:11:03.201Z,8.23
2022-09-20T22:13:53.171Z,9.63
2022-09-20T22:16:43.538Z,8.20
2022-09-20T22:19:32.233Z,9.32
2022-09-20T22:22:20.997Z,9.07
2022-09-20T22:25:09.963Z,8.05
2022-09-20T22:27:59.648Z,11.93
2022-09-20T22:30:48.125Z,9.98
2022-09-20T22:33:37.355Z,8.35
2022-09-20T22:36:27.911Z,7.63
2022-09-20T22:39:17.136Z,8.07
2022-09-20T22:42:05.912Z,9.55
2022-09-20T22:44:55.806Z,9.70
2022-09-20T22:47:45.203Z,9.82
2022-09-20T22:50:34.313Z,8.50
2022-09-20T22:53:22.733Z,8.38
2022-09-20T22:56:13.488Z,8.15
2022-09-20T22:59:05.661Z,8.30
2022-09-20T23:01:55.938Z,8.52
2022-09-20T23:04:44.453Z,7.38
2022-09-20T23:07:32.976Z,10.02
2022-09-20T23:10:21.511Z,7.70
2022-09-20T23:13:09.916Z,7.53
2022-09-20T23:15:58.773Z,7.65
2022-09-20T23:18:50.128Z,7.18
2022-09-20T23:21:40.163Z,8.55
2022-09-20T23:24:28.543Z,8.18
2022-09-20T23:27:17.551Z,8.65
2022-09-20T23:30:07.444Z,8.93
2022-09-20T23:32:56.043Z,8.65
2022-09-20T23:35:46.809Z,8.18
2022-09-20T23:38:35.483Z,8.18
2022-09-20T23:41:25.363Z,7.03
2022-09-20T23:44:13.899Z,7.85
2022-09-20T23:47:02.319Z,7.18
2022-09-20T23:49:50.704Z,6.85
2022-09-20T23:52:40.399Z,8.20
2022-09-20T23:55:28.937Z,7.68
2022-09-20T23:58:18.183Z,8.15
